createdAt,value
2018-01-22T00:00:47.314Z,8.55
2018-01-22T00:01:49.834Z,9.38
2018-01-22T00:02:52.338Z,8.90
2018-01-22T00:03:56.336Z,9.00
2018-01-22T00:04:58.837Z,8.70
2018-01-22T00:06:01.439Z,7.65
2018-01-22T00:07:03.919Z,8.13
2018-01-22T00:08:06.403Z,7.85
2018-01-22T00:09:08.905Z,8.50
2018-01-22T00:10:11.430Z,8.40
2018-01-22T00:11:13.940Z,9.10
2018-01-22T00:12:16.427Z,7.72
2018-01-22T00:13:18.932Z,10.02
2018-01-22T00:14:21.809Z,7.30
2018-01-22T00:15:24.418Z,8.88
2018-01-22T00:16:26.901Z,8.85
2018-01-22T00:17:29.403Z,8.70
2018-01-22T00:18:32.661Z,8.82
2018-01-22T00:19:35.171Z,8.15
2018-01-22T00:20:38.443Z,8.27
2018-01-22T00:21:41.921Z,8.48
2018-01-22T00:22:44.527Z,8.35
2018-01-22T00:23:47.021Z,8.23
2018-01-22T00:24:49.558Z,7.65
2018-01-22T00:25:52.827Z,7.45
2018-01-22T00:26:55.330Z,8.32
2018-01-22T00:27:57.898Z,7.10
2018-01-22T00:29:00.391Z,8.25
2018-01-22T00:30:02.887Z,8.32
2018-01-22T00:31:05.399Z,8.85
2018-01-22T00:32:08.679Z,8.25
2018-01-22T00:33:11.935Z,8.07
2018-01-22T00:34:14.446Z,6.82
2018-01-22T00:35:17.700Z,8.30
2018-01-22T00:36:20.315Z,7.75
2018-01-22T00:37:22.808Z,8.60
2018-01-22T00:38:25.295Z,6.87
2018-01-22T00:39:27.825Z,7.82
2018-01-22T00:40:30.316Z,8.68
2018-01-22T00:41:32.820Z,7.85
2018-01-22T00:42:35.337Z,8.80
2018-01-22T00:43:37.908Z,7.53
2018-01-22T00:44:40.417Z,8.25
2018-01-22T00:45:42.981Z,6.30
2018-01-22T00:46:45.512Z,7.72
2018-01-22T00:47:48.808Z,7.10
2018-01-22T00:48:51.382Z,7.10
2018-01-22T00:49:53.949Z,7.90
2018-01-22T00:50:56.433Z,7.07
2018-01-22T00:51:58.933Z,7.25
2018-01-22T00:53:01.435Z,7.10
2018-01-22T00:54:04.037Z,7.93
2018-01-22T00:55:06.536Z,6.93
2018-01-22T00:56:09.012Z,6.82
2018-01-22T00:57:11.533Z,7.40
2018-01-22T00:58:14.792Z,7.60
2018-01-22T00:59:18.788Z,7.57
2018-01-22T01:00:22.047Z,7.05
2018-01-22T01:01:24.531Z,7.07
2018-01-22T01:02:27.082Z,6.45
2018-01-22T01:03:29.572Z,7.30
2018-01-22T01:04:32.083Z,6.95
2018-01-22T01:05:35.358Z,7.70
2018-01-22T01:06:37.859Z,7.32
2018-01-22T01:07:40.381Z,6.45
2018-01-22T01:08:42.877Z,6.37
2018-01-22T01:09:46.144Z,6.72
2018-01-22T01:10:48.629Z,7.45
2018-01-22T01:11:51.129Z,7.65
2018-01-22T01:12:53.634Z,7.10
2018-01-22T01:13:56.125Z,8.27
2018-01-22T01:14:58.622Z,6.55
2018-01-22T01:16:01.862Z,6.28
2018-01-22T01:17:04.333Z,6.55
2018-01-22T01:18:06.869Z,6.30
2018-01-22T01:19:10.149Z,6.65
2018-01-22T01:20:13.398Z,6.03
2018-01-22T01:21:15.913Z,7.47
2018-01-22T01:22:18.975Z,7.03
2018-01-22T01:23:22.246Z,6.68
2018-01-22T01:24:24.740Z,5.30
2018-01-22T01:25:28.034Z,6.45
2018-01-22T01:26:31.319Z,6.25
2018-01-22T01:27:34.592Z,6.97
2018-01-22T01:28:37.086Z,5.90
2018-01-22T01:29:39.586Z,6.53
2018-01-22T01:30:42.071Z,6.57
2018-01-22T01:31:44.567Z,6.55
2018-01-22T01:32:47.059Z,5.20
2018-01-22T01:33:50.356Z,6.50
2018-01-22T01:34:52.866Z,6.07
2018-01-22T01:35:55.397Z,6.05
2018-01-22T01:36:57.889Z,6.80
2018-01-22T01:38:00.445Z,5.80
2018-01-22T01:39:02.980Z,5.70
2018-01-22T01:40:05.527Z,5.50
2018-01-22T01:41:08.014Z,6.37
2018-01-22T01:42:10.546Z,6.85
2018-01-22T01:43:13.235Z,6.07
2018-01-22T01:44:15.734Z,6.47
2018-01-22T01:45:19.034Z,5.70
2018-01-22T01:46:22.343Z,5.65
2018-01-22T01:47:24.858Z,6.05
2018-01-22T01:48:27.368Z,6.60
2018-01-22T01:49:30.666Z,5.78
2018-01-22T01:50:33.927Z,5.85
2018-01-22T01:51:36.446Z,5.85
2018-01-22T01:52:39.111Z,5.35
2018-01-22T01:53:41.613Z,6.12
2018-01-22T01:54:44.094Z,5.20
2018-01-22T01:55:46.630Z,5.10
2018-01-22T01:56:49.113Z,5.05
2018-01-22T01:57:51.608Z,6.20
2018-01-22T01:58:54.086Z,5.82
2018-01-22T01:59:56.566Z,4.70
2018-01-22T02:00:59.068Z,4.35
2018-01-22T02:02:01.557Z,4.43
2018-01-22T02:03:04.053Z,5.10
2018-01-22T02:04:06.539Z,5.10
2018-01-22T02:05:09.071Z,5.07
2018-01-22T02:06:11.599Z,4.62
2018-01-22T02:07:14.846Z,4.60
2018-01-22T02:08:17.371Z,5.20
2018-01-22T02:09:20.613Z,4.75
2018-01-22T02:10:23.094Z,4.80
2018-01-22T02:11:25.603Z,5.25
2018-01-22T02:12:28.113Z,5.25
2018-01-22T02:13:30.634Z,4.22
2018-01-22T02:14:33.879Z,3.92
2018-01-22T02:15:36.371Z,4.97
2018-01-22T02:16:39.662Z,4.10
2018-01-22T02:17:42.162Z,5.40
2018-01-22T02:18:44.663Z,4.62
2018-01-22T02:19:47.146Z,4.55
2018-01-22T02:20:49.630Z,4.90
2018-01-22T02:21:52.126Z,5.20
2018-01-22T02:22:55.396Z,3.78
2018-01-22T02:23:58.646Z,4.20
2018-01-22T02:25:01.152Z,4.05
2018-01-22T02:26:03.646Z,4.50
2018-01-22T02:27:06.187Z,4.28
2018-01-22T02:28:08.676Z,4.72
2018-01-22T02:29:11.982Z,4.43
2018-01-22T02:30:14.457Z,5.50
2018-01-22T02:31:17.028Z,4.32
2018-01-22T02:32:19.525Z,4.40
2018-01-22T02:33:22.016Z,5.68
2018-01-22T02:34:25.295Z,5.07
2018-01-22T02:35:27.786Z,4.85
2018-01-22T02:36:31.026Z,5.25
2018-01-22T02:37:33.541Z,4.85
2018-01-22T02:38:36.022Z,5.03
2018-01-22T02:39:38.512Z,3.85
2018-01-22T02:40:41.006Z,4.37
2018-01-22T02:41:43.493Z,4.75
2018-01-22T02:42:46.026Z,4.95
2018-01-22T02:43:48.518Z,4.62
2018-01-22T02:44:51.034Z,5.37
2018-01-22T02:45:53.640Z,5.00
2018-01-22T02:46:56.143Z,5.07
2018-01-22T02:47:58.640Z,4.50
2018-01-22T02:49:01.117Z,5.57
2018-01-22T02:50:03.628Z,5.35
2018-01-22T02:51:06.140Z,4.97
2018-01-22T02:52:08.625Z,5.47
2018-01-22T02:53:11.137Z,5.70
2018-01-22T02:54:13.647Z,6.30
2018-01-22T02:55:16.158Z,6.07
2018-01-22T02:56:19.426Z,5.93
2018-01-22T02:57:21.928Z,5.80
2018-01-22T02:58:24.424Z,5.55
2018-01-22T02:59:26.973Z,6.32
2018-01-22T03:00:29.466Z,4.80
2018-01-22T03:01:31.956Z,5.45
2018-01-22T03:02:34.474Z,5.10
2018-01-22T03:03:36.970Z,5.37
2018-01-22T03:04:39.493Z,5.25
2018-01-22T03:05:42.753Z,4.62
2018-01-22T03:06:45.257Z,6.05
2018-01-22T03:07:48.539Z,5.47
2018-01-22T03:08:51.812Z,5.65
2018-01-22T03:09:54.329Z,4.53
2018-01-22T03:10:56.816Z,4.40
2018-01-22T03:11:59.326Z,4.60
2018-01-22T03:13:01.830Z,4.70
2018-01-22T03:14:04.307Z,5.35
2018-01-22T03:15:06.817Z,5.20
2018-01-22T03:16:09.308Z,5.25
2018-01-22T03:17:11.807Z,5.18
2018-01-22T03:18:14.320Z,5.25
2018-01-22T03:19:16.815Z,5.82
2018-01-22T03:20:19.307Z,6.22
2018-01-22T03:21:22.607Z,5.53
2018-01-22T03:22:25.115Z,5.15
2018-01-22T03:23:27.590Z,5.10
2018-01-22T03:24:30.089Z,4.80
2018-01-22T03:25:33.241Z,4.80
2018-01-22T03:26:35.736Z,4.70
2018-01-22T03:27:38.222Z,4.95
2018-01-22T03:28:41.532Z,4.68
2018-01-22T03:29:44.013Z,5.05
2018-01-22T03:30:46.530Z,4.70
2018-01-22T03:31:49.043Z,4.18
2018-01-22T03:32:51.528Z,4.82
2018-01-22T03:33:54.012Z,5.00
2018-01-22T03:34:56.487Z,4.62
2018-01-22T03:35:58.985Z,5.50
2018-01-22T03:37:01.497Z,4.75
2018-01-22T03:38:04.025Z,5.32
2018-01-22T03:39:06.556Z,4.43
2018-01-22T03:40:09.039Z,4.47
2018-01-22T03:41:11.533Z,5.43
2018-01-22T03:42:14.043Z,5.45
2018-01-22T03:43:16.531Z,4.90
2018-01-22T03:44:19.016Z,4.62
2018-01-22T03:45:23.064Z,4.57
2018-01-22T03:46:26.355Z,4.60
2018-01-22T03:47:28.856Z,4.97
2018-01-22T03:48:32.095Z,5.32
2018-01-22T03:49:34.583Z,4.72
2018-01-22T03:50:37.073Z,4.87
2018-01-22T03:51:40.343Z,5.03
2018-01-22T03:52:42.841Z,4.95
2018-01-22T03:53:46.689Z,4.85
2018-01-22T03:54:49.165Z,4.65
2018-01-22T03:55:51.647Z,4.00
2018-01-22T03:56:54.137Z,4.82
2018-01-22T03:57:56.742Z,4.90
2018-01-22T03:58:59.214Z,4.70
2018-01-22T04:00:01.695Z,4.72
2018-01-22T04:01:04.172Z,5.47
2018-01-22T04:02:06.679Z,4.87
2018-01-22T04:03:09.225Z,4.55
2018-01-22T04:04:11.701Z,6.25
2018-01-22T04:05:14.182Z,4.37
2018-01-22T04:06:16.701Z,4.43
2018-01-22T04:07:19.226Z,5.10
2018-01-22T04:08:21.703Z,5.40
2018-01-22T04:09:24.200Z,4.90
2018-01-22T04:10:27.447Z,5.35
2018-01-22T04:11:30.049Z,5.32
2018-01-22T04:12:33.316Z,4.62
2018-01-22T04:13:35.813Z,4.65
2018-01-22T04:14:39.083Z,5.25
2018-01-22T04:15:42.339Z,5.25
2018-01-22T04:16:44.827Z,4.75
2018-01-22T04:17:47.349Z,4.55
2018-01-22T04:18:50.657Z,5.75
2018-01-22T04:19:53.913Z,5.05
2018-01-22T04:20:56.407Z,5.05
2018-01-22T04:21:58.939Z,4.75
2018-01-22T04:23:01.452Z,5.20
2018-01-22T04:24:03.970Z,5.28
2018-01-22T04:25:06.474Z,5.47
2018-01-22T04:26:08.955Z,4.93
2018-01-22T04:27:11.446Z,5.85
2018-01-22T04:28:14.759Z,5.32
2018-01-22T04:29:17.292Z,5.62
2018-01-22T04:30:19.777Z,4.97
2018-01-22T04:31:22.291Z,5.68
2018-01-22T04:32:24.787Z,5.35
2018-01-22T04:33:28.054Z,4.70
2018-01-22T04:34:30.566Z,6.40
2018-01-22T04:35:33.095Z,5.60
2018-01-22T04:36:35.587Z,6.95
2018-01-22T04:37:38.083Z,5.82
2018-01-22T04:38:40.563Z,5.70
2018-01-22T04:39:43.819Z,5.35
2018-01-22T04:40:46.299Z,5.00
2018-01-22T04:41:48.770Z,5.25
2018-01-22T04:42:51.234Z,5.43
2018-01-22T04:43:53.715Z,5.90
2018-01-22T04:44:56.217Z,5.18
2018-01-22T04:45:59.479Z,5.20
2018-01-22T04:47:01.976Z,5.20
2018-01-22T04:48:04.450Z,5.15
2018-01-22T04:49:06.923Z,5.18
2018-01-22T04:50:09.450Z,5.87
2018-01-22T04:51:11.949Z,5.55
2018-01-22T04:52:15.241Z,5.65
2018-01-22T04:53:17.746Z,5.65
2018-01-22T04:54:20.213Z,6.05
2018-01-22T04:55:23.457Z,5.80
2018-01-22T04:56:25.937Z,6.32
2018-01-22T04:57:29.193Z,5.78
2018-01-22T04:58:31.675Z,5.53
2018-01-22T04:59:34.149Z,6.00
2018-01-22T05:00:36.646Z,5.25
2018-01-22T05:01:39.126Z,6.45
2018-01-22T05:02:41.613Z,5.10
2018-01-22T05:03:44.092Z,6.32
2018-01-22T05:04:46.597Z,5.47
2018-01-22T05:05:49.087Z,5.97
2018-01-22T05:06:51.616Z,5.50
2018-01-22T05:07:54.088Z,5.70
2018-01-22T05:08:56.598Z,6.45
2018-01-22T05:10:00.628Z,6.80
2018-01-22T05:11:03.100Z,6.20
2018-01-22T05:12:05.603Z,6.55
2018-01-22T05:13:08.079Z,6.53
2018-01-22T05:14:10.561Z,6.28
2018-01-22T05:15:13.042Z,6.00
2018-01-22T05:16:16.336Z,6.15
2018-01-22T05:17:18.814Z,5.72
2018-01-22T05:18:22.065Z,6.00
2018-01-22T05:19:24.551Z,6.62
2018-01-22T05:20:27.998Z,6.10
2018-01-22T05:21:30.504Z,6.35
2018-01-22T05:22:32.997Z,6.22
2018-01-22T05:23:35.461Z,5.93
2018-01-22T05:24:37.945Z,6.55
2018-01-22T05:25:41.204Z,5.80
2018-01-22T05:26:43.696Z,6.20
2018-01-22T05:27:46.190Z,6.37
2018-01-22T05:28:48.683Z,6.40
2018-01-22T05:29:51.171Z,6.20
2018-01-22T05:30:53.644Z,6.20
2018-01-22T05:31:56.273Z,5.80
2018-01-22T05:32:58.781Z,6.70
2018-01-22T05:34:01.276Z,5.55
2018-01-22T05:35:03.768Z,6.75
2018-01-22T05:36:07.044Z,6.15
2018-01-22T05:37:09.524Z,6.95
2018-01-22T05:38:12.804Z,6.95
2018-01-22T05:39:15.270Z,6.00
2018-01-22T05:40:17.782Z,6.90
2018-01-22T05:41:20.275Z,5.43
2018-01-22T05:42:22.741Z,7.87
2018-01-22T05:43:25.282Z,6.68
2018-01-22T05:44:27.763Z,6.00
2018-01-22T05:45:30.249Z,6.55
2018-01-22T05:46:32.740Z,7.30
2018-01-22T05:47:35.269Z,6.35
2018-01-22T05:48:37.764Z,6.70
2018-01-22T05:49:40.450Z,5.93
2018-01-22T05:50:42.919Z,6.95
2018-01-22T05:51:45.702Z,6.40
2018-01-22T05:52:48.265Z,6.30
2018-01-22T05:53:50.763Z,7.37
2018-01-22T05:54:53.243Z,7.03
2018-01-22T05:55:55.720Z,6.80
2018-01-22T05:56:58.185Z,6.75
2018-01-22T05:58:00.665Z,7.35
2018-01-22T05:59:03.925Z,7.07
2018-01-22T06:00:06.434Z,7.30
2018-01-22T06:01:08.898Z,7.75
2018-01-22T06:02:12.166Z,7.20
2018-01-22T06:03:14.702Z,7.80
2018-01-22T06:04:17.198Z,7.03
2018-01-22T06:05:19.664Z,6.70
2018-01-22T06:16:07.162Z,5.65
2018-01-22T06:17:09.628Z,5.37
2018-01-22T06:18:12.111Z,6.05
2018-01-22T06:19:14.607Z,6.53
2018-01-22T06:20:17.093Z,6.90
2018-01-22T06:21:19.576Z,7.18
2018-01-22T06:22:22.065Z,7.20
2018-01-22T06:23:24.578Z,7.55
2018-01-22T06:24:27.101Z,7.15
2018-01-22T06:25:30.352Z,7.70
2018-01-22T06:26:32.824Z,8.13
2018-01-22T06:27:35.304Z,6.85
2018-01-22T06:28:37.801Z,7.40
2018-01-22T06:29:41.045Z,8.43
2018-01-22T06:30:43.550Z,7.68
2018-01-22T06:31:46.576Z,7.50
2018-01-22T06:32:49.066Z,7.30
2018-01-22T06:33:51.553Z,8.20
2018-01-22T06:34:54.025Z,8.73
2018-01-22T06:35:56.508Z,7.90
2018-01-22T06:36:58.977Z,8.13
2018-01-22T06:38:03.127Z,8.55
2018-01-22T06:39:05.609Z,7.85
2018-01-22T06:40:08.085Z,9.65
2018-01-22T06:41:10.680Z,8.55
2018-01-22T06:42:14.097Z,8.02
2018-01-22T06:43:17.359Z,8.00
2018-01-22T06:44:19.834Z,8.60
2018-01-22T06:45:22.319Z,8.90
2018-01-22T06:46:24.808Z,9.10
2018-01-22T06:47:28.032Z,9.10
2018-01-22T06:48:30.513Z,9.52
2018-01-22T06:49:33.940Z,8.85
2018-01-22T06:50:37.194Z,10.13
2018-01-22T06:51:39.691Z,9.65
2018-01-22T06:52:42.176Z,10.00
2018-01-22T06:53:45.432Z,9.70
2018-01-22T06:54:48.151Z,10.73
2018-01-22T06:55:50.646Z,11.00
2018-01-22T06:56:53.143Z,11.12
2018-01-22T06:57:55.639Z,11.32
2018-01-22T06:58:58.123Z,10.48
2018-01-22T07:00:01.359Z,11.02
2018-01-22T07:01:03.848Z,10.38
2018-01-22T07:02:06.347Z,9.00
2018-01-22T07:03:08.854Z,10.18
2018-01-22T07:04:11.483Z,8.90
2018-01-22T07:05:14.165Z,9.45
2018-01-22T07:06:17.476Z,9.50
2018-01-22T07:07:19.974Z,9.93
2018-01-22T07:08:22.482Z,10.80
2018-01-22T07:09:25.741Z,10.88
2018-01-22T07:10:28.212Z,10.43
2018-01-22T07:11:30.704Z,10.75
2018-01-22T07:12:33.202Z,9.45
2018-01-22T07:13:36.464Z,9.88
2018-01-22T07:14:38.965Z,10.60
2018-01-22T07:15:42.231Z,10.52
2018-01-22T07:16:44.702Z,10.32
2018-01-22T07:17:47.174Z,10.80
2018-01-22T07:18:49.728Z,8.98
2018-01-22T07:19:52.211Z,10.90
2018-01-22T07:20:54.690Z,10.93
2018-01-22T07:21:57.172Z,10.75
2018-01-22T07:23:00.420Z,11.20
2018-01-22T07:24:02.920Z,10.40
2018-01-22T07:25:05.398Z,12.45
2018-01-22T07:26:08.653Z,10.68
2018-01-22T07:27:12.095Z,11.18
2018-01-22T07:28:15.528Z,10.50
2018-01-22T07:29:18.793Z,12.02
2018-01-22T07:30:21.263Z,11.82
2018-01-22T07:31:23.724Z,12.07
2018-01-22T07:32:26.199Z,12.82
2018-01-22T07:33:28.696Z,13.00
2018-01-22T07:34:31.188Z,12.18
2018-01-22T07:35:33.736Z,12.82
2018-01-22T07:36:36.250Z,13.25
2018-01-22T07:37:38.747Z,13.77
2018-01-22T07:38:41.224Z,13.00
2018-01-22T07:39:43.720Z,12.65
2018-01-22T07:40:46.212Z,12.43
2018-01-22T07:41:48.725Z,13.48
2018-01-22T07:42:51.226Z,12.90
2018-01-22T07:43:53.696Z,13.15
2018-01-22T07:44:56.253Z,14.87
2018-01-22T07:45:58.736Z,13.70
2018-01-22T07:47:01.238Z,13.60
2018-01-22T07:48:03.712Z,12.77
2018-01-22T07:49:06.214Z,12.25
2018-01-22T07:50:09.498Z,11.90
2018-01-22T07:51:12.815Z,12.25
2018-01-22T07:52:15.295Z,11.88
2018-01-22T07:53:17.787Z,12.20
2018-01-22T07:54:20.278Z,12.18
2018-01-22T07:55:22.779Z,11.00
2018-01-22T07:56:25.261Z,11.45
2018-01-22T07:57:27.736Z,11.65
2018-01-22T07:58:30.222Z,11.80
2018-01-22T07:59:32.699Z,12.37
2018-01-22T08:00:35.205Z,13.65
2018-01-22T08:01:37.678Z,12.70
2018-01-22T08:02:40.173Z,11.80
2018-01-22T08:03:43.409Z,11.48
2018-01-22T08:04:45.928Z,12.80
2018-01-22T08:05:48.464Z,11.32
2018-01-22T08:06:50.946Z,12.75
2018-01-22T08:07:53.418Z,12.65
2018-01-22T08:08:55.882Z,12.35
2018-01-22T08:09:58.365Z,12.75
2018-01-22T08:11:01.617Z,11.65
2018-01-22T08:12:04.113Z,11.50
2018-01-22T08:13:06.589Z,12.05
2018-01-22T08:14:10.005Z,11.48
2018-01-22T08:15:12.599Z,12.65
2018-01-22T08:16:15.080Z,13.38
2018-01-22T08:17:17.588Z,12.25
2018-01-22T08:18:20.626Z,13.43
2018-01-22T08:19:23.110Z,12.23
2018-01-22T08:20:25.596Z,13.73
2018-01-22T08:21:28.103Z,11.27
2018-01-22T08:22:31.376Z,12.93
2018-01-22T08:23:34.651Z,12.65
2018-01-22T08:24:37.128Z,13.90
2018-01-22T08:25:39.961Z,14.10
2018-01-22T08:26:42.449Z,12.50
2018-01-22T08:27:44.937Z,11.77
2018-01-22T08:28:47.427Z,13.40
2018-01-22T08:29:50.673Z,13.38
2018-01-22T08:30:53.179Z,13.23
2018-01-22T08:31:55.665Z,13.45
2018-01-22T08:32:58.924Z,14.02
2018-01-22T08:34:01.398Z,14.30
2018-01-22T08:35:03.928Z,14.15
2018-01-22T08:36:06.463Z,14.25
2018-01-22T08:37:08.965Z,14.63
2018-01-22T08:38:12.649Z,15.18
2018-01-22T08:39:15.140Z,14.85
2018-01-22T08:40:17.620Z,14.45
2018-01-22T08:41:20.111Z,15.43
2018-01-22T08:42:22.636Z,15.38
2018-01-22T08:43:25.137Z,16.12
2018-01-22T08:44:27.624Z,16.45
2018-01-22T08:45:30.104Z,16.02
2018-01-22T08:46:32.579Z,14.98
2018-01-22T08:47:35.048Z,16.12
2018-01-22T08:48:37.546Z,16.92
2018-01-22T08:49:40.789Z,16.10
2018-01-22T08:50:43.285Z,15.82
2018-01-22T08:51:45.763Z,16.27
2018-01-22T08:52:49.081Z,17.40
2018-01-22T08:53:51.581Z,16.73
2018-01-22T08:54:54.062Z,16.20
2018-01-22T08:55:56.533Z,16.90
2018-01-22T08:56:59.007Z,17.15
2018-01-22T08:58:01.504Z,18.58
2018-01-22T08:59:04.748Z,18.25
2018-01-22T09:00:07.231Z,17.23
2018-01-22T09:01:09.937Z,17.27
2018-01-22T09:02:14.059Z,18.25
2018-01-22T09:03:17.328Z,18.30
2018-01-22T09:04:20.578Z,17.95
2018-01-22T09:05:23.040Z,18.20
2018-01-22T09:06:25.528Z,19.85
2018-01-22T09:07:28.064Z,19.95
2018-01-22T09:08:30.576Z,18.02
2018-01-22T09:09:33.072Z,18.67
2018-01-22T09:10:36.413Z,17.87
2018-01-22T09:11:38.903Z,18.35
2018-01-22T09:12:41.395Z,17.17
2018-01-22T09:13:49.184Z,18.27
2018-01-22T09:14:51.670Z,18.52
2018-01-22T09:15:54.923Z,17.25
2018-01-22T09:16:58.171Z,17.35
2018-01-22T09:18:00.671Z,17.45
2018-01-22T09:19:03.156Z,18.35
2018-01-22T09:20:06.574Z,18.62
2018-01-22T09:21:09.051Z,17.58
2018-01-22T09:22:12.481Z,17.33
2018-01-22T09:23:14.953Z,18.65
2018-01-22T09:24:17.440Z,17.40
2018-01-22T09:25:19.941Z,16.42
2018-01-22T09:26:22.447Z,16.52
2018-01-22T09:27:24.945Z,17.15
2018-01-22T09:28:27.442Z,16.60
2018-01-22T09:29:29.928Z,14.48
2018-01-22T09:30:33.229Z,17.73
2018-01-22T09:31:36.504Z,17.75
2018-01-22T09:32:39.008Z,16.48
2018-01-22T09:33:41.511Z,17.00
2018-01-22T09:34:44.056Z,17.42
2018-01-22T09:35:46.548Z,17.17
2018-01-22T09:36:49.064Z,15.90
2018-01-22T09:37:52.329Z,17.15
2018-01-22T09:38:54.823Z,16.02
2018-01-22T09:39:57.307Z,16.90
2018-01-22T09:41:01.555Z,16.00
2018-01-22T09:42:04.074Z,17.10
2018-01-22T09:43:07.593Z,14.50
2018-01-22T09:44:12.869Z,14.70
2018-01-22T09:45:15.371Z,13.98
2018-01-22T09:46:18.809Z,14.10
2018-01-22T09:47:21.296Z,14.57
2018-01-22T09:48:24.380Z,13.70
2018-01-22T09:49:26.863Z,14.25
2018-01-22T09:50:29.349Z,14.57
2018-01-22T09:51:31.873Z,15.02
2018-01-22T09:52:34.617Z,15.30
2018-01-22T09:53:37.142Z,13.27
2018-01-22T09:54:39.622Z,12.15
2018-01-22T09:55:42.112Z,12.68
2018-01-22T09:56:44.623Z,12.85
2018-01-22T09:57:47.096Z,13.35
2018-01-22T09:58:49.568Z,13.07
2018-01-22T09:59:52.076Z,11.60
2018-01-22T10:00:54.566Z,13.10
2018-01-22T10:02:01.172Z,12.52
2018-01-22T10:03:03.939Z,12.02
2018-01-22T10:04:06.484Z,11.45
2018-01-22T10:05:16.582Z,12.00
2018-01-22T10:06:19.849Z,13.00
2018-01-22T10:20:17.374Z,9.65
2018-01-22T10:21:24.232Z,10.25
2018-01-22T10:22:26.959Z,10.45
2018-01-22T10:23:30.296Z,10.80
2018-01-22T10:34:12.923Z,9.02
2018-01-22T10:35:16.204Z,8.77
2018-01-22T10:36:18.680Z,8.73
2018-01-22T10:37:26.668Z,10.68
2018-01-22T10:38:29.176Z,10.60
2018-01-22T10:39:31.831Z,8.98
2018-01-22T10:40:34.368Z,9.60
2018-01-22T10:41:37.140Z,11.35
2018-01-22T10:42:39.628Z,9.40
2018-01-22T10:43:42.140Z,10.05
2018-01-22T10:44:48.556Z,9.60
2018-01-22T10:45:51.063Z,10.80
2018-01-22T10:46:53.564Z,10.52
2018-01-22T10:47:56.054Z,11.07
2018-01-22T10:48:59.360Z,11.73
2018-01-22T10:50:01.874Z,11.07
2018-01-22T10:51:04.392Z,11.68
2018-01-22T10:52:11.464Z,11.10
2018-01-22T10:53:13.947Z,11.50
2018-01-22T10:54:17.289Z,10.73
2018-01-22T10:55:19.773Z,11.57
2018-01-22T10:56:22.327Z,11.77
2018-01-22T10:57:24.804Z,12.55
2018-01-22T10:58:27.305Z,13.52
2018-01-22T10:59:33.779Z,15.70
2018-01-22T11:00:36.306Z,12.55
2018-01-22T11:01:38.942Z,13.05
2018-01-22T11:02:41.429Z,14.13
2018-01-22T11:03:43.912Z,13.30
2018-01-22T11:04:46.394Z,13.45
2018-01-22T11:05:48.876Z,14.75
2018-01-22T11:06:55.340Z,13.85
2018-01-22T11:07:58.619Z,14.13
2018-01-22T11:09:01.099Z,16.50
2018-01-22T11:10:04.418Z,16.33
2018-01-22T11:11:06.894Z,16.75
2018-01-22T11:12:10.318Z,16.35
2018-01-22T11:13:13.175Z,15.88
2018-01-22T11:14:18.236Z,14.48
2018-01-22T11:17:00.037Z,15.10
2018-01-22T11:18:02.547Z,16.75
2018-01-22T11:19:05.247Z,17.70
2018-01-22T11:20:08.499Z,18.12
2018-01-22T11:21:11.138Z,15.95
2018-01-22T11:22:14.098Z,16.55
2018-01-22T11:23:17.709Z,16.75
2018-01-22T11:24:21.213Z,16.52
2018-01-22T11:25:23.714Z,18.25
2018-01-22T11:26:26.204Z,17.58
2018-01-22T11:27:28.783Z,18.37
2018-01-22T11:28:31.306Z,17.00
2018-01-22T11:29:34.590Z,18.30
2018-01-22T11:30:37.855Z,18.42
2018-01-22T11:31:42.659Z,16.27
2018-01-22T11:32:45.155Z,17.80
2018-01-22T11:33:47.656Z,19.55
2018-01-22T11:34:50.278Z,17.17
2018-01-22T11:35:52.947Z,17.67
2018-01-22T11:36:56.255Z,17.62
2018-01-22T11:37:59.507Z,18.98
2018-01-22T11:39:04.457Z,20.05
2018-01-22T11:40:06.957Z,18.87
2018-01-22T11:41:10.248Z,19.98
2018-01-22T11:42:13.554Z,19.45
2018-01-22T11:43:16.930Z,17.75
2018-01-22T11:44:23.580Z,18.98
2018-01-22T11:45:27.178Z,20.12
2018-01-22T11:46:29.673Z,19.30
2018-01-22T11:47:32.281Z,21.42
2018-01-22T11:48:35.534Z,19.92
2018-01-22T11:49:38.034Z,19.98
2018-01-22T11:50:41.313Z,20.30
2018-01-22T11:51:46.732Z,20.10
2018-01-22T11:52:49.228Z,19.83
2018-01-22T11:53:51.724Z,18.40
2018-01-22T11:54:54.239Z,20.55
2018-01-22T11:55:56.768Z,20.10
2018-01-22T11:56:59.301Z,17.90
2018-01-22T11:58:01.801Z,18.30
2018-01-22T11:59:09.009Z,18.00
2018-01-22T12:00:11.572Z,18.33
2018-01-22T12:01:14.094Z,21.60
2018-01-22T12:02:19.519Z,18.40
2018-01-22T12:03:22.858Z,19.48
2018-01-22T12:04:27.902Z,17.73
2018-01-22T12:05:31.486Z,19.52
2018-01-22T12:06:34.008Z,18.35
2018-01-22T12:07:36.539Z,18.55
2018-01-22T12:08:39.042Z,17.52
2018-01-22T12:09:42.302Z,18.27
2018-01-22T12:10:44.927Z,17.20
2018-01-22T12:11:52.281Z,17.85
2018-01-22T12:12:54.809Z,16.80
2018-01-22T12:13:57.295Z,18.37
2018-01-22T12:14:59.784Z,18.73
2018-01-22T12:16:02.287Z,17.60
2018-01-22T12:17:04.797Z,18.00
2018-01-22T12:18:08.083Z,17.10
2018-01-22T12:19:14.686Z,17.87
2018-01-22T12:20:17.282Z,18.10
2018-01-22T12:21:19.797Z,16.52
2018-01-22T12:22:23.081Z,17.35
2018-01-22T12:23:25.606Z,16.35
2018-01-22T12:24:28.179Z,15.88
2018-01-22T12:25:31.454Z,15.63
2018-01-22T12:26:36.725Z,15.70
2018-01-22T12:27:39.228Z,17.67
2018-01-22T12:28:41.720Z,16.15
2018-01-22T12:29:44.229Z,16.35
2018-01-22T12:30:46.744Z,15.57
2018-01-22T12:31:49.251Z,17.65
2018-01-22T12:32:51.776Z,14.93
2018-01-22T12:33:57.877Z,15.30
2018-01-22T12:35:00.418Z,14.35
2018-01-22T12:36:02.922Z,15.15
2018-01-22T12:37:05.434Z,16.27
2018-01-22T12:38:07.966Z,16.12
2018-01-22T12:39:10.606Z,14.75
2018-01-22T12:40:13.858Z,14.00
2018-01-22T12:41:19.987Z,13.98
2018-01-22T12:42:22.481Z,13.05
2018-01-22T12:43:25.018Z,11.75
2018-01-22T12:44:28.293Z,13.85
2018-01-22T12:45:31.577Z,12.88
2018-01-22T12:46:35.719Z,13.05
2018-01-22T12:47:38.545Z,12.82
2018-01-22T12:48:42.261Z,12.73
2018-01-22T12:49:44.885Z,12.07
2018-01-22T12:50:47.431Z,13.65
2018-01-22T12:51:49.944Z,12.65
2018-01-22T12:52:52.477Z,11.98
2018-01-22T12:53:55.012Z,12.00
2018-01-22T12:54:57.516Z,11.75
2018-01-22T12:56:00.033Z,12.07
2018-01-22T12:57:02.523Z,11.57
2018-01-22T12:58:05.036Z,10.48
2018-01-22T12:59:07.551Z,10.68
2018-01-22T13:00:10.087Z,10.07
2018-01-22T13:01:13.495Z,11.50
2018-01-22T13:02:16.006Z,11.07
2018-01-22T13:03:18.517Z,11.02
2018-01-22T13:04:21.787Z,11.75
2018-01-22T13:05:24.319Z,10.60
2018-01-22T13:06:26.817Z,11.07
2018-01-22T13:07:29.326Z,10.75
2018-01-22T13:08:32.732Z,11.80
2018-01-22T13:09:35.389Z,9.55
2018-01-22T13:10:37.939Z,10.52
2018-01-22T13:11:40.452Z,10.57
2018-01-22T13:12:42.965Z,9.93
2018-01-22T13:13:45.464Z,8.90
2018-01-22T13:14:48.743Z,8.70
2018-01-22T13:15:51.254Z,9.93
2018-01-22T13:16:53.737Z,9.80
2018-01-22T13:17:56.287Z,9.10
2018-01-22T13:18:58.821Z,9.73
2018-01-22T13:20:02.089Z,8.40
2018-01-22T13:21:04.590Z,7.90
2018-01-22T13:22:07.093Z,8.02
2018-01-22T13:23:10.376Z,8.55
2018-01-22T13:24:12.935Z,9.43
2018-01-22T13:25:16.384Z,9.15
2018-01-22T13:26:19.014Z,9.20
2018-01-22T13:27:21.545Z,8.43
2018-01-22T13:28:24.029Z,8.73
2018-01-22T13:29:26.534Z,8.65
2018-01-22T13:30:29.047Z,8.65
2018-01-22T13:31:31.579Z,8.77
2018-01-22T13:32:34.838Z,8.75
2018-01-22T13:33:37.334Z,8.07
2018-01-22T13:34:40.615Z,7.50
2018-01-22T13:35:43.889Z,8.35
2018-01-22T13:36:46.374Z,6.93
2018-01-22T13:37:49.648Z,8.48
2018-01-22T13:38:52.141Z,8.77
2018-01-22T13:40:01.173Z,8.75
2018-01-22T13:41:10.414Z,7.87
2018-01-22T13:42:12.954Z,6.80
2018-01-22T13:43:16.226Z,7.32
2018-01-22T13:44:18.718Z,6.72
2018-01-22T13:45:21.983Z,8.00
2018-01-22T13:46:24.503Z,7.35
2018-01-22T13:47:27.762Z,6.62
2018-01-22T13:48:30.263Z,8.43
2018-01-22T13:49:37.740Z,6.45
2018-01-22T13:50:40.263Z,6.68
2018-01-22T13:51:42.780Z,7.25
2018-01-22T13:52:45.294Z,7.22
2018-01-22T13:53:47.805Z,7.60
2018-01-22T13:54:50.319Z,7.35
2018-01-22T13:55:52.825Z,7.40
2018-01-22T13:56:59.264Z,6.62
2018-01-22T13:58:01.774Z,6.72
2018-01-22T13:59:05.050Z,6.37
2018-01-22T14:00:08.306Z,6.57
2018-01-22T14:01:10.966Z,6.20
2018-01-22T14:02:13.453Z,5.82
2018-01-22T14:03:15.939Z,5.57
2018-01-22T14:04:22.266Z,5.12
2018-01-22T14:05:24.855Z,6.32
2018-01-22T14:06:27.364Z,5.85
2018-01-22T14:07:29.862Z,5.95
2018-01-22T14:08:32.379Z,5.10
2018-01-22T14:09:35.024Z,6.20
2018-01-22T14:10:37.548Z,6.62
2018-01-22T14:11:44.043Z,5.57
2018-01-22T14:12:46.520Z,5.30
2018-01-22T14:13:49.039Z,5.72
2018-01-22T14:14:51.604Z,4.75
2018-01-22T14:15:54.223Z,5.60
2018-01-22T14:16:56.719Z,5.53
2018-01-22T14:17:59.214Z,5.78
2018-01-22T14:19:05.750Z,5.50